createdAt,value
2022-08-02T00:01:25.290Z,101899.66
2022-08-02T00:06:28.711Z,101902.16
2022-08-02T00:11:31.959Z,101896.84
2022-08-02T00:16:37.504Z,101886.97
2022-08-02T00:21:41.589Z,101886.97
2022-08-02T00:26:44.535Z,101875.44
2022-08-02T00:31:49.021Z,101867.53
2022-08-02T00:36:52.199Z,101862.88
2022-08-02T00:41:55.261Z,101866.47
2022-08-02T00:46:59.659Z,101864.66
2022-08-02T00:52:02.778Z,101862.81
2022-08-02T00:57:06.063Z,101863.84
2022-08-02T01:02:10.805Z,101851.38
2022-08-02T01:07:14.694Z,101855.75
2022-08-02T01:12:17.959Z,101845.88
2022-08-02T01:17:30.552Z,101852.97
2022-08-02T01:23:02.317Z,101839.59
2022-08-02T01:28:29.495Z,101843.16
2022-08-02T01:33:41.009Z,101835.31
2022-08-02T01:38:48.418Z,101830.94
2022-08-02T01:43:59.918Z,101828.13
2022-08-02T01:49:09.426Z,101832.38
2022-08-02T01:54:15.496Z,101841.94
2022-08-02T01:59:23.709Z,101829.38
2022-08-02T02:04:29.406Z,101830.25
2022-08-02T02:09:37.272Z,101826.63
2022-08-02T02:14:56.809Z,101826.53
2022-08-02T02:20:02.855Z,101826.44
2022-08-02T02:25:07.453Z,101820.97
2022-08-02T02:30:17.617Z,101820.09
2022-08-02T02:35:22.858Z,101812.19
2022-08-02T02:40:28.624Z,101797.91
2022-08-02T02:45:34.505Z,101789.78
2022-08-02T02:50:38.089Z,101798.56
2022-08-02T02:56:02.197Z,101799.47
2022-08-02T03:01:55.929Z,101795.91
2022-08-02T03:06:48.018Z,101791.44
2022-08-02T03:11:51.730Z,101796.69
2022-08-02T03:16:56.108Z,101795.78
2022-08-02T03:21:59.190Z,101794.81
2022-08-02T03:27:03.074Z,101792.16
2022-08-02T03:32:08.108Z,101782.47
2022-08-02T03:37:11.522Z,101785.03
2022-08-02T03:42:15.750Z,101765.56
2022-08-02T03:47:21.089Z,101754.88
2022-08-02T03:52:25.577Z,101756.72
2022-08-02T03:57:28.885Z,101764.72
2022-08-02T04:02:33.195Z,101754.06
2022-08-02T04:08:02.643Z,101763.75
2022-08-02T04:13:00.025Z,101745.09
2022-08-02T04:18:04.927Z,101754.72
2022-08-02T04:23:09.230Z,101749.28
2022-08-02T04:28:16.871Z,101738.63
2022-08-02T04:33:22.985Z,101740.47
2022-08-02T04:38:26.680Z,101746.66
2022-08-02T04:43:29.873Z,101747.53
2022-08-02T04:48:34.823Z,101750.22
2022-08-02T04:53:37.958Z,101752.13
2022-08-02T04:58:41.304Z,101756.59
2022-08-02T05:03:46.811Z,101742.53
2022-08-02T05:08:52.767Z,101733.81
2022-08-02T05:13:58.105Z,101712.66
2022-08-02T05:19:04.303Z,101723.34
2022-08-02T05:24:08.575Z,101727.81
2022-08-02T05:29:11.542Z,101732.41
2022-08-02T05:34:16.264Z,101741.41
2022-08-02T05:39:19.816Z,101761.06
2022-08-02T05:44:23.823Z,101769.19
2022-08-02T05:49:28.434Z,101763.16
2022-08-02T05:54:44.120Z,101754.50
2022-08-02T05:59:55.646Z,101748.38
2022-08-02T06:05:05.552Z,101742.31
2022-08-02T06:10:10.259Z,101743.38
2022-08-02T06:15:15.675Z,101742.59
2022-08-02T06:20:21.778Z,101737.56
2022-08-02T06:25:50.452Z,101736.09
2022-08-02T06:30:48.227Z,101736.38
2022-08-02T06:36:01.904Z,101738.38
2022-08-02T06:41:08.355Z,101722.56
2022-08-02T06:46:34.062Z,101728.22
2022-08-02T06:51:38.420Z,101733.78
2022-08-02T06:56:41.906Z,101735.03
2022-08-02T07:01:45.570Z,101733.50
2022-08-02T07:06:50.333Z,101733.59
2022-08-02T07:11:53.576Z,101743.44
2022-08-02T07:16:56.880Z,101734.59
2022-08-02T07:22:02.458Z,101726.69
2022-08-02T07:27:13.253Z,101735.81
2022-08-02T07:32:18.033Z,101734.28
2022-08-02T07:37:36.022Z,101736.34
2022-08-02T07:42:47.347Z,101734.03
2022-08-02T07:47:51.816Z,101718.69
2022-08-02T07:52:57.585Z,101707.41
2022-08-02T07:58:01.487Z,101697.78
2022-08-02T08:03:04.765Z,101702.34
2022-08-02T08:08:13.823Z,101714.00
2022-08-02T08:13:20.230Z,101710.59
2022-08-02T08:18:24.146Z,101709.75
2022-08-02T08:23:30.995Z,101715.97
2022-08-02T08:28:35.605Z,101715.91
2022-08-02T08:33:38.960Z,101710.44
2022-08-02T08:38:43.528Z,101710.28
2022-08-02T08:43:52.868Z,101699.38
2022-08-02T08:49:07.446Z,101705.56
2022-08-02T08:54:17.250Z,101696.56
2022-08-02T08:59:20.717Z,101707.09
2022-08-02T09:04:24.491Z,101695.94
2022-08-02T09:09:29.108Z,101695.81
2022-08-02T09:14:32.857Z,101700.50
2022-08-02T09:19:37.077Z,101688.78
2022-08-02T09:24:47.303Z,101696.69
2022-08-02T09:30:11.994Z,101693.41
2022-08-02T09:36:06.503Z,101702.78
2022-08-02T09:41:00.561Z,101690.63
2022-08-02T09:46:11.961Z,101693.56
2022-08-02T09:51:20.324Z,101698.91
2022-08-02T09:56:35.217Z,101709.94
2022-08-02T10:01:40.302Z,101704.84
2022-08-02T10:06:55.127Z,101712.75
2022-08-02T10:12:01.366Z,101711.38
2022-08-02T10:17:06.084Z,101706.78
2022-08-02T10:22:12.979Z,101700.22
2022-08-02T10:27:20.403Z,101707.66
2022-08-02T10:32:29.948Z,101696.75
2022-08-02T10:37:37.440Z,101709.31
2022-08-02T10:42:49.817Z,101688.13
2022-08-02T10:48:04.196Z,101682.16
2022-08-02T10:53:28.069Z,101682.25
2022-08-02T10:58:33.818Z,101682.09
2022-08-02T11:03:42.428Z,101680.78
2022-08-02T11:08:45.468Z,101673.53
2022-08-02T11:14:04.058Z,101664.38
2022-08-02T11:19:07.300Z,101666.69
2022-08-02T11:24:29.042Z,101659.13
2022-08-02T11:29:42.004Z,101670.16
2022-08-02T11:34:49.266Z,101660.44
2022-08-02T11:39:53.009Z,101662.25
2022-08-02T11:44:57.520Z,101665.44
2022-08-02T11:50:11.541Z,101676.28
2022-08-02T11:55:14.869Z,101665.25
2022-08-02T12:00:20.371Z,101664.28
2022-08-02T12:05:51.335Z,101653.25
2022-08-02T12:10:49.412Z,101672.38
2022-08-02T12:15:54.357Z,101668.88
2022-08-02T12:20:58.312Z,101660.78
2022-08-02T12:26:02.336Z,101665.16
2022-08-02T12:31:08.513Z,101665.53
2022-08-02T12:36:17.101Z,101657.88
2022-08-02T12:41:30.804Z,101655.16
2022-08-02T12:46:42.053Z,101647.16
2022-08-02T12:51:55.900Z,101646.09
2022-08-02T12:57:12.675Z,101650.34
2022-08-02T13:02:18.180Z,101652.31
2022-08-02T13:07:21.556Z,101645.41
2022-08-02T13:12:24.923Z,101636.88
2022-08-02T13:17:29.511Z,101624.97
2022-08-02T13:22:32.898Z,101635.34
2022-08-02T13:27:38.249Z,101628.69
2022-08-02T13:32:42.781Z,101622.09
2022-08-02T13:37:47.740Z,101624.09
2022-08-02T13:42:50.918Z,101610.31
2022-08-02T13:48:03.900Z,101609.03
2022-08-02T13:53:08.857Z,101592.66
2022-08-02T13:58:12.253Z,101586.66
2022-08-02T14:03:16.922Z,101582.88
2022-08-02T14:08:22.524Z,101587.63
2022-08-02T14:13:25.782Z,101587.94
2022-08-02T14:18:30.417Z,101574.81
2022-08-02T14:23:49.925Z,101574.31
2022-08-02T14:28:54.380Z,101571.47
2022-08-02T14:33:58.888Z,101557.28
2022-08-02T14:39:02.296Z,101551.25
2022-08-02T14:44:06.173Z,101564.72
2022-08-02T14:49:14.629Z,101546.72
2022-08-02T14:54:31.517Z,101548.69
2022-08-02T14:59:34.846Z,101542.50
2022-08-02T15:04:42.488Z,101530.53
2022-08-02T15:09:46.542Z,101538.03
2022-08-02T15:14:49.580Z,101525.69
2022-08-02T15:19:58.187Z,101532.31
2022-08-02T15:25:04.495Z,101525.69
2022-08-02T15:30:17.992Z,101516.41
2022-08-02T15:35:22.868Z,101519.72
2022-08-02T15:40:27.623Z,101518.53
2022-08-02T15:45:30.826Z,101517.78
2022-08-02T15:50:35.217Z,101515.34
2022-08-02T15:55:40.113Z,101516.59
2022-08-02T16:00:56.396Z,101511.47
2022-08-02T16:06:00.806Z,101512.84
2022-08-02T16:11:03.799Z,101505.84
2022-08-02T16:16:07.024Z,101503.47
2022-08-02T16:21:11.647Z,101500.06
2022-08-02T16:26:14.956Z,101504.34
2022-08-02T16:31:18.817Z,101491.84
2022-08-02T16:36:23.714Z,101491.56
2022-08-02T16:41:50.937Z,101503.81
2022-08-02T16:46:50.791Z,101492.41
2022-08-02T16:51:56.155Z,101492.94
2022-08-02T16:56:59.521Z,101486.38
2022-08-02T17:02:11.381Z,101482.03
2022-08-02T17:08:06.162Z,101484.84
2022-08-02T17:12:40.552Z,101488.84
2022-08-02T17:17:43.695Z,101483.69
2022-08-02T17:22:50.705Z,101498.09
2022-08-02T17:27:55.887Z,101482.44
2022-08-02T17:32:59.682Z,101482.34
2022-08-02T17:38:05.399Z,101484.88
2022-08-02T17:43:14.780Z,101489.25
2022-08-02T17:48:19.917Z,101488.63
2022-08-02T17:53:36.276Z,101492.44
2022-08-02T17:58:39.520Z,101488.63
2022-08-02T18:03:55.209Z,101489.75
2022-08-02T18:08:59.601Z,101501.97
2022-08-02T18:14:04.070Z,101494.16
2022-08-02T18:19:16.843Z,101508.81
2022-08-02T18:24:24.113Z,101512.19
2022-08-02T18:29:30.173Z,101495.47
2022-08-02T18:34:44.373Z,101509.94
2022-08-02T18:39:52.266Z,101519.59
2022-08-02T18:44:55.417Z,101527.75
2022-08-02T18:50:00.007Z,101520.97
2022-08-02T19:00:28.160Z,101514.28
2022-08-02T19:05:53.230Z,101511.25
2022-08-02T19:10:57.433Z,101531.59
2022-08-02T19:16:06.263Z,101521.19
2022-08-02T19:21:09.436Z,101528.69
2022-08-02T19:26:14.285Z,101526.53
2022-08-02T19:31:18.175Z,101528.72
2022-08-02T19:36:22.389Z,101530.72
2022-08-02T19:41:43.920Z,101534.91
2022-08-02T19:46:49.119Z,101532.44
2022-08-02T19:57:19.397Z,101528.13
2022-08-02T20:02:22.813Z,101529.38
2022-08-02T20:07:54.316Z,101525.81
2022-08-02T20:12:50.703Z,101541.97
2022-08-02T20:17:53.857Z,101526.00
2022-08-02T20:23:33.134Z,101538.47
2022-08-02T20:28:38.874Z,101540.50
2022-08-02T20:33:55.397Z,101547.78
2022-08-02T20:38:59.650Z,101554.22
2022-08-02T20:44:04.627Z,101557.88
2022-08-02T20:49:25.216Z,101553.63
2022-08-02T20:54:41.648Z,101544.78
2022-08-02T20:59:51.242Z,101543.03
2022-08-02T21:04:55.374Z,101539.59
2022-08-02T21:09:58.770Z,101539.66
2022-08-02T21:15:03.390Z,101540.63
2022-08-02T21:20:07.153Z,101536.22
2022-08-02T21:25:10.960Z,101545.19
2022-08-02T21:30:20.814Z,101537.16
2022-08-02T21:35:28.346Z,101534.53
2022-08-02T21:40:32.561Z,101536.31
2022-08-02T21:45:38.024Z,101530.97
2022-08-02T21:50:56.925Z,101531.88
2022-08-02T21:56:00.903Z,101528.34
2022-08-02T22:01:07.311Z,101531.03
2022-08-02T22:06:10.498Z,101532.00
2022-08-02T22:11:17.249Z,101531.16
2022-08-02T22:16:38.486Z,101541.88
2022-08-02T22:21:54.593Z,101539.22
2022-08-02T22:26:59.168Z,101547.25
2022-08-02T22:32:04.152Z,101542.81
2022-08-02T22:37:07.753Z,101539.25
2022-08-02T22:42:30.465Z,101534.81
2022-08-02T22:47:38.905Z,101541.97
2022-08-02T22:52:54.566Z,101527.72
2022-08-02T22:57:58.280Z,101540.25
2022-08-02T22:58:46.032Z,101514.81
2022-08-02T22:59:07.626Z,101528.91
2022-08-02T23:03:02.857Z,101546.50
2022-08-02T23:08:06.625Z,101538.50
2022-08-02T23:13:09.893Z,101533.16
2022-08-02T23:18:31.720Z,101543.84
2022-08-02T23:23:34.690Z,101535.78
2022-08-02T23:28:37.687Z,101540.25
2022-08-02T23:34:03.850Z,101546.53
2022-08-02T23:39:05.529Z,101545.63
2022-08-02T23:44:14.167Z,101533.13
2022-08-02T23:49:19.767Z,101537.56
2022-08-02T23:54:22.802Z,101532.25
2022-08-02T23:59:26.322Z,101536.69
